• Join FlightAware (Why Join?)
  • Login
  • US Flag 
10:44AM EDT


 

Airport Tracker/Info


-or-


 

Live Flight TrackerFlight Track Log ✈ CTL13 ✈ 10-May-2013 ✈ KBKL - KEYE

Flight Track Log - Related Links

Times and Time Zones

All times are in EDT time to prevent confusion due to time zone crossing. See the CTL13 flight status page for this flight to view local times or setup timezone preferences in your user account.

Time Position Orientation Groundspeed Altitude Reporting Facility
EDT Latitude Longitude Course Direction KTS MPH feet Rate Location/Type
07:09PM 41.5394 -81.7206 333° Northwest 140 161 2,000  Level Cleveland Center
07:09PM 41.5561 -81.7319 333° Northwest 154 177 2,000 120 Level Cleveland Center
07:10PM 41.5869 -81.7769 313° West 165 190 2,200 300 Climbing Cleveland Center
07:11PM 41.5925 -81.8242 279° West 123 142 2,700 480 Climbing Cleveland Center
07:12PM 41.5839 -81.8628 253° West 128 147 3,200 480 Climbing Cleveland Center
07:13PM 41.5728 -81.9100 253° West 128 147 3,700 480 Climbing Cleveland Center
07:14PM 41.5681 -81.9542 262° West 128 147 4,200 540 Climbing Cleveland Center
07:15PM 41.5633 -82.0011 262° West 128 147 4,800 540 Climbing Cleveland Center
07:16PM 41.5544 -82.0483 256° West 127 146 5,400 540 Climbing Cleveland Center
07:17PM 41.5353 -82.0950 241° Southwest 131 151 6,000 540 Climbing Cleveland Center
07:18PM 41.5200 -82.1333 242° Southwest 127 146 6,600 540 Climbing Cleveland Center
07:19PM 41.5008 -82.1717 236° Southwest 125 144 7,100 480 Climbing Cleveland Center
07:20PM 41.4814 -82.2156 239° Southwest 131 151 7,600 420 Climbing Cleveland Center
07:21PM 41.4661 -82.2542 242° Southwest 126 145 8,000 180 Climbing Cleveland Center
07:22PM 41.4467 -82.3006 241° Southwest 146 168 8,000  Level Cleveland Center
07:23PM 41.4272 -82.3472 241° Southwest 147 169 8,000  Level Cleveland Center
07:25PM 41.4029 -82.3919 234° Southwest  Level FlightAware Approximate
07:32PM 41.2444 -82.7009 238° Southwest  Level FlightAware Approximate
07:33PM 41.2228 -82.7459 237° Southwest  Level FlightAware Approximate
07:34PM 41.2011 -82.7907 237° Southwest  Level FlightAware Approximate
07:35PM 41.1795 -82.8356 237° Southwest  Level FlightAware Approximate
07:36PM 41.1579 -82.8804 237° Southwest  Level FlightAware Approximate
07:37PM 41.1362 -82.9252 237° Southwest  Level FlightAware Approximate
07:38PM 41.1145 -82.9700 237° Southwest  Level FlightAware Approximate
07:39PM 41.0932 -83.0150 239° Southwest  Level FlightAware Approximate
07:40PM 41.0725 -83.0606 239° Southwest  Level FlightAware Approximate
07:40PM 41.0917 -83.1128 238° Southwest 141 162 8,100  Level Indianapolis Center
07:41PM 41.0518 -83.1061 239° Southwest  Level FlightAware Approximate
07:41PM 41.0708 -83.1608 240° Southwest 147 169 8,100  Level Indianapolis Center
07:42PM 41.0311 -83.1516 239° Southwest  Level FlightAware Approximate
07:42PM 41.0497 -83.2050 238° Southwest 142 163 8,100  Level Indianapolis Center
07:43PM 41.0103 -83.1970 238° Southwest  Level FlightAware Approximate
07:44PM 40.9891 -83.2421 238° Southwest  Level FlightAware Approximate
07:44PM 41.0283 -83.2494 237° Southwest 142 163 8,100  Level Indianapolis Center
07:45PM 40.9679 -83.2872 238° Southwest  Level FlightAware Approximate
07:45PM 41.0081 -83.2939 239° Southwest 140 161 8,100  Level Indianapolis Center
07:46PM 40.9467 -83.3323 238° Southwest  Level FlightAware Approximate
07:46PM 40.9889 -83.3386 240° Southwest 139 160 8,000  Level Indianapolis Center
07:47PM 40.9683 -83.3825 238° Southwest 139 160 8,000  Level Indianapolis Center
07:48PM 40.9472 -83.4261 237° Southwest 140 161 8,000  Level Indianapolis Center
07:49PM 40.9289 -83.4708 242° Southwest 138 159 8,000  Level Indianapolis Center
07:50PM 40.9100 -83.5189 243° Southwest 137 158 8,000  Level Indianapolis Center
07:51PM 40.8903 -83.5650 241° Southwest 142 163 8,000  Level Indianapolis Center
07:52PM 40.8697 -83.6097 239° Southwest 142 163 8,000 -180 Level Indianapolis Center
07:53PM 40.8500 -83.6575 241° Southwest 145 167 7,700 -360 Descending Indianapolis Center
07:54PM 40.8289 -83.7078 241° Southwest 153 176 7,300 -600 Descending Indianapolis Center
07:55PM 40.8078 -83.7614 243° Southwest 160 184 6,500 -660 Descending Indianapolis Center
07:56PM 40.7864 -83.8144 242° Southwest 163 188 6,000 -300 Descending Indianapolis Center
07:57PM 40.7850 -83.8722 268° West 148 170 6,000  Level Indianapolis Center
07:58PM 40.8083 -83.9156 305° West 142 163 6,100 -300 Climbing Indianapolis Center
07:59PM 40.8314 -83.9575 306° West 142 163 5,400 -720 Descending Indianapolis Center
08:00PM 40.8542 -83.9994 306° West 140 161 4,700 -540 Descending Indianapolis Center
08:01PM 40.8756 -84.0428 303° West 139 160 4,400 -180 Descending Indianapolis Center
08:03PM 40.8550 -84.1223 251° West  Level FlightAware Approximate
08:05PM 40.9147 -84.2075 237° Southwest 162 186 4,000  Level Chicago Center
08:06PM 40.8892 -84.2647 239° Southwest 153 176 4,000 -60 Level Chicago Center
08:07PM 40.8669 -84.3103 237° Southwest 151 174 3,900  Descending Chicago Center
08:08PM 40.8464 -84.3578 240° Southwest 150 173 4,000  Climbing Chicago Center
08:09PM 40.8242 -84.4042 238° Southwest 150 173 4,000  Level Chicago Center
08:10PM 40.7096 -84.4400 237° Southwest  Level Estimated
08:10PM 40.8000 -84.4467 233° Southwest 148 170 4,000  Level Chicago Center
08:11PM 40.7656 -84.4797 216° Southwest 151 174 4,000  Level Chicago Center
08:12PM 40.7256 -84.5214 218° Southwest 151 174 4,000  Level Chicago Center
08:13PM 40.6917 -84.5542 216° Southwest 152 175 4,000  Level Chicago Center
08:14PM 40.6564 -84.5867 215° Southwest 153 176 4,000  Level Chicago Center
08:15PM 40.6228 -84.6219 219° Southwest 153 176 4,000  Level Chicago Center
08:16PM 40.5850 -84.6572 215° Southwest 153 176 4,000  Level Chicago Center
08:17PM 40.5481 -84.6933 217° Southwest 155 178 4,000  Level Chicago Center
08:19PM 40.4910 -84.6972 183° South  Level FlightAware Approximate
08:22PM 40.3919 -84.8508 246° West 155 178 4,000  Level Indianapolis Center
08:23PM 40.3558 -84.8839 215° Southwest 156 180 4,000  Level Indianapolis Center
08:24PM 40.3169 -84.9222 217° Southwest 156 180 4,000  Level Indianapolis Center
08:25PM 40.2822 -84.9583 218° Southwest 156 180 4,000  Level Indianapolis Center
08:26PM 40.3614 -85.0174 226° Southwest  Level Estimated
08:26PM 40.2597 -85.0014 236° Southwest 148 170 4,000  Level Indianapolis Center
08:27PM 40.3428 -85.0631 246° West  Level Estimated
08:27PM 40.2406 -85.0533 244° Southwest 155 178 3,900  Level Indianapolis Center
08:27PM 40.2364 -85.0592 227° Southwest 152 175 4,000 60 Climbing Indianapolis Center
08:28PM 40.2214 -85.1053 247° West 153 176 4,000 -120 Level Indianapolis Center
08:28PM 40.2194 -85.1128 251° West 155 178 3,900 -120 Descending Indianapolis Center
08:29PM 40.2072 -85.1497 247° West 152 175 3,900  Level Indianapolis Center
08:29PM 40.2022 -85.1622 242° Southwest 153 176 3,900  Level Indianapolis Center
08:30PM 40.1872 -85.2131 249° West 151 174 3,900  Level Indianapolis Center
08:31PM 40.1725 -85.2614 248° West 148 170 3,900  Level Indianapolis Center
08:32PM 40.1522 -85.3208 246° West 148 170 4,000  Climbing Indianapolis Center
08:33PM 40.1369 -85.3689 247° West 146 168 3,900 -120 Descending Indianapolis Center
08:34PM 40.1292 -85.3867 240° Southwest 146 168 3,900  Level Chicago Center
08:34PM 40.1200 -85.4186 249° West 148 170 3,900  Level Indianapolis Center
08:35PM 40.1042 -85.4661 246° West 146 168 3,900  Level Indianapolis Center
08:36PM 40.0906 -85.5150 250° West 145 167 3,900  Level Indianapolis Center
08:37PM 40.0764 -85.5642 249° West 145 167 4,000  Climbing Indianapolis Center
08:38PM 40.0628 -85.6133 250° West 145 167 4,000  Level Indianapolis Center
08:39PM 40.0461 -85.6619 246° West 147 169 4,000 -60 Level Indianapolis Center
08:40PM 40.0278 -85.7194 247° West 145 167 3,900 -60 Descending Indianapolis Center
08:41PM 40.0122 -85.7678 247° West 145 167 3,900  Level Indianapolis Center
08:42PM 39.9953 -85.8147 245° Southwest 144 166 4,000  Climbing Indianapolis Center
08:43PM 39.9783 -85.8625 245° Southwest 145 167 3,900  Descending Indianapolis Center
08:45PM 39.9625 -85.9108 247° West 146 168 4,000  Climbing Indianapolis Center
08:46PM 39.9469 -85.9592 247° West 146 168 4,000  Level Indianapolis Center
08:47PM 39.9314 -86.0072 247° West 145 167 4,000 -60 Level Indianapolis Center
08:48PM 39.9303 -86.0561 268° West 140 161 3,900 -60 Descending Indianapolis Center
08:49PM 39.9289 -86.1122 268° West 135 155 3,900  Level Indianapolis Center
08:50PM 39.9283 -86.1556 269° West 127 146 4,000 60 Climbing Indianapolis Center
08:50PM 39.9333 -86.1667 300° West 119 137 4,000  Level Indianapolis TRACON
08:51PM 39.9333 -86.2167 270° West 110 127 4,000 -300 Level Indianapolis TRACON
08:52PM 39.9500 -86.2500 303° West 127 146 3,400 -480 Descending Indianapolis TRACON
08:53PM 40.0000 -86.2500 360° North 152 175 3,000 -240 Descending Indianapolis TRACON
08:54PM 40.0000 -86.2167 90° East 173 199 3,000  Level Indianapolis TRACON
08:55PM 39.9500 -86.2167 180° South 146 168 3,000 -300 Level Indianapolis TRACON
08:56PM 39.9167 -86.2333 201° Southwest 136 157 2,500 -540 Descending Indianapolis TRACON